Flughafen Niederrhein

Aus VATSIM Germany
Dies ist die bestätigte Version dieser Seite, allerdings nicht deren neueste Version. Die neueste Version ansehen.
Wechseln zu:Navigation, Suche
UnderCon icon.svg.pngDieser Artikel ist noch im Aufbau. Der Artikel kann daher unvollständig sein oder Fehler enthalten!


Niederrhein Airport
ICAO / IATA EDLV / NRN
Koordinaten N51°36′9″  E006°8′32″
Höhe 32 m / 106 ft
Wetter EDLV 190550Z 17007KT 4500 -DZ BR BKN005 14/13 Q1017
Pisten
Platzfrequenzen
Nur für Flugsimulationszwecke!



Informationen für Piloten und Lotsen
Pilotenbriefing

Standard Operating Procedures (SOP)

Letters of Agreement (LoAs)

Airport Charts


Vorlage:Navigationsleiste Flughäfen EDLL